Time;durP1;ratioP1;P1;durP2;ratioP2;P2;SDS_P1;SDS_P2;PMS_P1;PMS_P2;Temp;Humidity;BMP_temperature;BMP_pressure;BME280_temperature;BME280_humidity;BME280_pressure;Samples;Min_cycle;Max_cycle;Signal;HPM_P1;HPM_P2
2021/10/16 00:00:40;;;;;;;14.27;6.50;;;9.50;99.90;;;;;;5048156;28;20177;-73
2021/10/16 00:03:06;;;;;;;17.90;10.13;;;9.50;99.90;;;;;;5046107;28;20201;-72
2021/10/16 00:05:31;;;;;;;17.10;10.27;;;9.50;99.90;;;;;;5041935;28;20193;-72
2021/10/16 00:07:57;;;;;;;19.07;11.60;;;9.50;99.90;;;;;;5047262;28;20172;-72
2021/10/16 00:10:23;;;;;;;18.40;12.13;;;9.50;99.90;;;;;;5033320;28;20173;-73
2021/10/16 00:12:49;;;;;;;19.87;12.10;;;9.40;99.90;;;;;;5033428;28;20166;-72
2021/10/16 00:15:15;;;;;;;21.73;13.23;;;9.40;99.90;;;;;;5036309;28;20201;-73
2021/10/16 00:17:40;;;;;;;22.63;11.80;;;9.40;99.90;;;;;;5033330;28;20177;-72
2021/10/16 00:20:08;;;;;;;18.37;11.47;;;9.40;99.90;;;;;;5033206;28;20170;-72
2021/10/16 00:22:33;;;;;;;17.33;11.57;;;9.30;99.90;;;;;;5032757;28;20234;-73
2021/10/16 00:24:59;;;;;;;17.70;11.70;;;9.40;99.90;;;;;;5031795;28;20532;-72
2021/10/16 00:27:26;;;;;;;18.67;11.00;;;9.30;99.90;;;;;;5032152;28;20170;-73
2021/10/16 00:29:52;;;;;;;19.05;10.25;;;9.30;99.90;;;;;;5031981;28;20244;-73
2021/10/16 00:32:17;;;;;;;16.03;8.23;;;9.30;99.90;;;;;;5032632;28;20216;-73
2021/10/16 00:34:43;;;;;;;13.30;7.50;;;9.30;99.90;;;;;;5032936;28;20231;-72
2021/10/16 00:37:09;;;;;;;13.57;7.30;;;9.30;99.90;;;;;;5032702;28;20170;-73
2021/10/16 00:39:35;;;;;;;13.17;6.30;;;9.30;99.90;;;;;;5048367;28;20261;-73
2021/10/16 00:42:01;;;;;;;15.37;5.70;;;9.20;99.90;;;;;;5032490;28;20564;-72
2021/10/16 00:44:27;;;;;;;12.30;5.40;;;9.20;99.90;;;;;;5031689;28;20186;-72
2021/10/16 00:46:56;;;;;;;11.27;5.97;;;9.20;99.90;;;;;;5031440;28;20564;-72
2021/10/16 00:49:22;;;;;;;10.30;4.97;;;9.20;99.90;;;;;;5032857;28;20169;-73
2021/10/16 00:51:48;;;;;;;17.15;4.15;;;9.20;99.90;;;;;;5035686;28;20170;-73
2021/10/16 00:54:14;;;;;;;9.73;3.93;;;9.10;99.90;;;;;;5032883;28;20209;-72
2021/10/16 00:56:42;;;;;;;10.10;3.60;;;9.10;99.90;;;;;;5032715;28;20189;-73
2021/10/16 00:59:09;;;;;;;8.32;4.80;;;9.10;99.90;;;;;;5047769;28;20561;-73
2021/10/16 01:01:36;;;;;;;10.65;4.25;;;9.10;99.90;;;;;;4998337;28;20170;-72
2021/10/16 01:04:03;;;;;;;9.80;3.10;;;9.10;99.90;;;;;;5032280;28;20582;-73
2021/10/16 01:06:34;;;;;;;8.02;4.18;;;9.00;99.90;;;;;;5031301;28;20269;-74
2021/10/16 01:09:09;;;;;;;7.00;4.53;;;9.00;99.90;;;;;;5036151;28;20533;-74
2021/10/16 01:11:37;;;;;;;8.15;3.90;;;9.00;99.90;;;;;;5032113;28;20168;-73
2021/10/16 01:14:10;;;;;;;9.20;3.25;;;9.00;99.90;;;;;;5030793;28;20197;-73
2021/10/16 01:16:39;;;;;;;12.00;3.33;;;9.00;99.90;;;;;;5047642;28;20174;-73
2021/10/16 01:19:16;;;;;;;7.25;3.17;;;9.00;99.90;;;;;;5032185;28;20192;-73
2021/10/16 01:21:46;;;;;;;8.43;3.60;;;8.90;99.90;;;;;;5030901;28;20644;-73
2021/10/16 01:24:13;;;;;;;8.68;3.83;;;8.90;99.90;;;;;;5030776;28;20194;-73
2021/10/16 01:26:42;;;;;;;9.25;3.25;;;8.90;99.90;;;;;;5031229;28;20201;-73
2021/10/16 01:29:10;;;;;;;5.72;3.35;;;8.90;99.90;;;;;;5036234;28;20162;-73
2021/10/16 01:31:37;;;;;;;11.45;3.78;;;8.90;99.90;;;;;;5047439;28;20173;-72
2021/10/16 01:34:04;;;;;;;5.60;4.00;;;8.90;99.90;;;;;;5031564;28;20561;-73
2021/10/16 01:36:44;;;;;;;9.40;3.22;;;8.90;99.90;;;;;;5014438;28;20534;-73
2021/10/16 01:39:12;;;;;;;6.20;2.90;;;8.90;99.90;;;;;;5030418;28;20166;-73
2021/10/16 01:41:43;;;;;;;9.82;3.15;;;8.90;99.90;;;;;;5030666;28;20162;-73
2021/10/16 01:44:12;;;;;;;7.60;3.55;;;8.80;99.90;;;;;;5046850;28;20255;-73
2021/10/16 01:46:40;;;;;;;9.05;3.05;;;8.80;99.90;;;;;;5047396;28;20185;-73
2021/10/16 01:49:10;;;;;;;8.15;3.40;;;8.80;99.90;;;;;;5030685;28;20268;-73
2021/10/16 01:51:37;;;;;;;8.95;3.50;;;8.80;99.90;;;;;;5030273;28;20256;-73
2021/10/16 01:54:03;;;;;;;11.05;4.00;;;8.80;99.90;;;;;;5030363;28;20204;-73
2021/10/16 01:56:29;;;;;;;5.00;3.05;;;8.70;99.90;;;;;;5014039;28;20215;-73
2021/10/16 01:58:55;;;;;;;7.97;3.50;;;8.80;99.90;;;;;;5031705;28;20169;-73
2021/10/16 02:01:50;;;;;;;8.30;3.15;;;8.70;99.90;;;;;;5031261;28;20979;-73
2021/10/16 02:04:23;;;;;;;8.27;3.65;;;8.80;99.90;;;;;;5030213;28;20259;-73
2021/10/16 02:06:49;;;;;;;7.15;4.50;;;8.80;99.90;;;;;;5034707;28;20270;-73
2021/10/16 02:09:15;;;;;;;9.82;4.10;;;8.80;99.90;;;;;;5030498;28;20173;-74
2021/10/16 02:11:41;;;;;;;8.40;4.35;;;8.80;99.90;;;;;;5046462;28;20181;-73
2021/10/16 02:14:07;;;;;;;10.93;3.30;;;8.80;99.90;;;;;;5031435;28;20204;-73
2021/10/16 02:16:34;;;;;;;8.38;3.50;;;8.80;99.90;;;;;;5029970;28;20197;-74
2021/10/16 02:19:03;;;;;;;10.35;3.90;;;8.80;99.90;;;;;;5046698;28;20260;-73
2021/10/16 02:21:31;;;;;;;7.90;3.65;;;8.80;99.90;;;;;;5029853;28;20523;-73
2021/10/16 02:23:59;;;;;;;7.68;3.45;;;8.80;99.90;;;;;;5029957;28;20194;-73
2021/10/16 02:26:29;;;;;;;6.50;3.35;;;8.80;99.90;;;;;;5029842;28;20206;-73
2021/10/16 02:28:56;;;;;;;5.50;3.20;;;8.80;99.90;;;;;;5030071;28;20200;-73
2021/10/16 02:31:24;;;;;;;6.72;4.00;;;8.80;99.90;;;;;;5013400;28;20188;-73
2021/10/16 02:33:53;;;;;;;7.25;3.53;;;8.80;99.90;;;;;;5029961;28;20209;-74
2021/10/16 02:36:19;;;;;;;6.43;3.60;;;8.70;99.90;;;;;;5029984;28;20177;-73
2021/10/16 02:38:45;;;;;;;10.10;4.00;;;8.70;99.90;;;;;;5030192;28;20276;-73
2021/10/16 02:41:11;;;;;;;8.00;3.60;;;8.70;99.90;;;;;;5029930;28;20568;-73
2021/10/16 02:43:37;;;;;;;6.57;3.90;;;8.60;99.90;;;;;;5035665;28;20631;-73
2021/10/16 02:46:04;;;;;;;6.22;3.28;;;8.60;99.90;;;;;;5030153;28;20680;-73
2021/10/16 02:48:30;;;;;;;9.47;4.40;;;8.60;99.90;;;;;;5013531;28;20209;-74
2021/10/16 02:50:56;;;;;;;14.20;3.90;;;8.50;99.90;;;;;;5031646;28;20962;-74
2021/10/16 02:53:23;;;;;;;8.57;4.75;;;8.50;99.90;;;;;;5034904;28;20284;-73
2021/10/16 02:55:52;;;;;;;12.13;5.38;;;8.50;99.90;;;;;;5063362;23;20217;-77
2021/10/16 02:58:18;;;;;;;9.93;3.97;;;8.50;99.90;;;;;;5025306;28;20186;-77
2021/10/16 03:00:44;;;;;;;9.13;5.03;;;8.50;99.90;;;;;;5017319;28;20657;-77
2021/10/16 03:03:10;;;;;;;9.93;4.07;;;8.50;99.90;;;;;;5036011;28;20556;-77
2021/10/16 03:05:36;;;;;;;11.18;4.65;;;8.50;99.90;;;;;;5034316;28;20186;-77
2021/10/16 03:08:11;;;;;;;10.80;4.90;;;8.50;99.90;;;;;;5049968;28;20220;-77
2021/10/16 03:10:37;;;;;;;7.67;4.60;;;8.50;99.90;;;;;;5050232;28;20197;-77
2021/10/16 03:13:02;;;;;;;8.97;4.70;;;8.40;99.90;;;;;;5034070;28;20580;-77
2021/10/16 03:15:30;;;;;;;6.75;4.10;;;8.40;99.90;;;;;;5049608;28;20628;-77
2021/10/16 03:17:59;;;;;;;8.77;4.47;;;8.40;99.90;;;;;;5033243;28;20165;-77
2021/10/16 03:20:28;;;;;;;9.48;4.30;;;8.40;99.90;;;;;;5049755;28;20218;-77
2021/10/16 03:22:56;;;;;;;7.43;4.40;;;8.40;99.90;;;;;;5033245;28;20173;-77
2021/10/16 03:25:22;;;;;;;7.43;4.60;;;8.40;99.90;;;;;;5016360;28;20247;-77
2021/10/16 03:27:48;;;;;;;8.02;4.88;;;8.40;99.90;;;;;;5033353;28;20573;-77
2021/10/16 03:30:14;;;;;;;6.70;4.60;;;8.40;99.90;;;;;;5033620;28;20169;-77
2021/10/16 03:32:40;;;;;;;9.80;4.87;;;8.40;99.90;;;;;;5050179;28;20166;-78
2021/10/16 03:35:06;;;;;;;8.38;5.43;;;8.40;99.90;;;;;;5033229;28;20639;-78
2021/10/16 03:37:32;;;;;;;7.70;5.57;;;8.40;99.90;;;;;;5017025;28;20166;-78
2021/10/16 03:39:58;;;;;;;8.00;5.47;;;8.40;99.90;;;;;;5049504;28;20550;-78
2021/10/16 03:42:24;;;;;;;6.97;4.53;;;8.40;99.90;;;;;;5032613;28;20600;-78
2021/10/16 03:45:01;;;;;;;6.63;5.10;;;8.50;99.90;;;;;;5049314;28;20289;-78
2021/10/16 03:47:27;;;;;;;6.05;4.82;;;8.50;99.90;;;;;;5049333;28;20169;-78
2021/10/16 03:49:53;;;;;;;6.90;4.78;;;8.50;99.90;;;;;;5032592;28;20165;-78
2021/10/16 03:52:19;;;;;;;6.77;4.83;;;8.40;99.90;;;;;;5032258;28;20174;-78
2021/10/16 03:54:48;;;;;;;7.60;5.65;;;8.50;99.90;;;;;;5032208;28;20631;-79
2021/10/16 03:57:14;;;;;;;6.30;4.93;;;8.50;99.90;;;;;;5032403;28;20173;-78
2021/10/16 03:59:43;;;;;;;5.60;4.70;;;8.50;99.90;;;;;;4999595;28;20569;-78
2021/10/16 04:02:10;;;;;;;5.72;4.70;;;8.40;99.90;;;;;;5030802;28;20177;-78
2021/10/16 04:04:36;;;;;;;5.53;4.85;;;8.40;99.90;;;;;;5048925;28;20170;-78
2021/10/16 04:07:02;;;;;;;11.10;5.80;;;8.40;99.90;;;;;;5032118;28;20276;-78
2021/10/16 04:09:28;;;;;;;8.97;5.80;;;8.30;99.90;;;;;;5032363;28;20209;-78
2021/10/16 04:11:54;;;;;;;10.03;4.70;;;8.30;99.90;;;;;;5048589;28;20596;-78
2021/10/16 04:14:21;;;;;;;18.33;5.10;;;8.30;99.90;;;;;;5032097;28;20201;-78
2021/10/16 04:16:47;;;;;;;36.50;7.90;;;8.30;99.90;;;;;;5048633;28;20724;-78
2021/10/16 04:19:13;;;;;;;56.97;8.43;;;8.30;99.90;;;;;;5034677;28;20169;-79
2021/10/16 04:21:39;;;;;;;26.60;6.80;;;8.30;99.90;;;;;;5048137;28;20162;-78
2021/10/16 04:24:05;;;;;;;40.40;7.07;;;8.20;99.90;;;;;;5031917;28;20173;-78
2021/10/16 04:26:31;;;;;;;9.15;4.68;;;8.20;99.90;;;;;;5015150;28;20673;-78
2021/10/16 04:28:58;;;;;;;54.15;6.63;;;8.20;99.90;;;;;;5032263;28;20174;-78
2021/10/16 04:31:36;;;;;;;11.90;4.20;;;8.30;99.90;;;;;;5031452;28;20182;-78
2021/10/16 04:34:02;;;;;;;14.07;5.93;;;8.20;99.90;;;;;;5032789;28;20203;-78
2021/10/16 04:36:29;;;;;;;14.15;5.85;;;8.30;99.90;;;;;;5016174;28;20229;-78
2021/10/16 04:38:56;;;;;;;9.35;5.03;;;8.30;99.90;;;;;;5031540;28;20524;-78
2021/10/16 04:41:22;;;;;;;62.83;8.63;;;8.40;99.90;;;;;;5015071;28;20228;-78
2021/10/16 04:43:48;;;;;;;63.22;7.10;;;8.50;99.90;;;;;;5031437;28;20265;-78
2021/10/16 04:46:14;;;;;;;57.67;8.07;;;8.50;99.90;;;;;;5031730;28;20268;-78
2021/10/16 04:48:45;;;;;;;25.73;5.90;;;8.40;99.90;;;;;;5031647;28;20169;-78
2021/10/16 04:51:12;;;;;;;22.17;7.03;;;8.50;99.90;;;;;;5031372;28;20224;-79
2021/10/16 04:53:38;;;;;;;22.95;5.80;;;8.50;99.90;;;;;;5014868;28;20216;-78
2021/10/16 04:56:04;;;;;;;20.65;5.05;;;8.50;99.90;;;;;;5034382;28;20715;-78
2021/10/16 04:58:31;;;;;;;20.85;5.85;;;8.50;99.90;;;;;;5014657;28;20307;-78
2021/10/16 05:00:56;;;;;;;18.10;6.00;;;8.50;99.90;;;;;;5032628;28;20630;-78
2021/10/16 05:03:22;;;;;;;8.67;5.13;;;8.50;99.90;;;;;;5047147;28;20568;-78
2021/10/16 05:05:50;;;;;;;7.97;5.50;;;8.50;99.90;;;;;;5047721;28;20758;-79
2021/10/16 05:08:18;;;;;;;10.02;5.93;;;8.60;99.90;;;;;;5031056;28;20161;-78
2021/10/16 05:10:45;;;;;;;38.35;7.32;;;8.70;99.90;;;;;;5031268;28;20545;-78
2021/10/16 05:13:13;;;;;;;10.45;5.15;;;8.70;99.90;;;;;;5014479;28;20166;-78
2021/10/16 05:15:39;;;;;;;14.95;4.80;;;8.70;99.90;;;;;;5014274;28;20229;-78
2021/10/16 05:18:10;;;;;;;17.75;5.88;;;8.70;99.90;;;;;;5031162;28;20166;-78
2021/10/16 05:20:51;;;;;;;30.48;5.38;;;8.80;99.90;;;;;;5047493;28;20173;-78
2021/10/16 05:23:20;;;;;;;7.70;4.93;;;8.80;99.90;;;;;;5014308;28;20172;-78
2021/10/16 05:25:48;;;;;;;42.08;6.90;;;8.80;99.90;;;;;;5014397;28;20201;-79
2021/10/16 05:28:14;;;;;;;19.47;5.47;;;8.80;99.90;;;;;;5031085;28;20166;-79
2021/10/16 05:30:40;;;;;;;21.40;5.60;;;8.90;99.90;;;;;;5047283;28;20181;-78
2021/10/16 05:33:06;;;;;;;13.65;5.75;;;8.80;99.90;;;;;;4998273;28;20166;-78
2021/10/16 05:35:33;;;;;;;123.85;12.52;;;8.90;99.90;;;;;;5014182;28;20201;-77
2021/10/16 05:37:58;;;;;;;46.60;7.97;;;8.90;99.90;;;;;;5030999;28;20252;-78
2021/10/16 05:40:24;;;;;;;14.90;5.37;;;8.90;99.90;;;;;;5047249;28;20564;-77
2021/10/16 05:42:50;;;;;;;20.43;6.07;;;8.80;99.90;;;;;;5047228;28;20933;-78
2021/10/16 05:45:16;;;;;;;12.10;6.70;;;8.90;99.90;;;;;;5046844;28;20669;-78
2021/10/16 05:47:44;;;;;;;15.20;6.90;;;8.90;99.90;;;;;;5047228;28;20546;-78
2021/10/16 05:50:11;;;;;;;9.23;7.20;;;8.90;99.90;;;;;;5046855;28;20209;-77
2021/10/16 05:52:37;;;;;;;10.30;6.40;;;9.00;99.90;;;;;;5013830;28;20593;-79
2021/10/16 05:55:04;;;;;;;14.07;5.93;;;9.00;99.90;;;;;;5030256;28;20570;-77
2021/10/16 05:57:30;;;;;;;7.10;5.90;;;9.10;99.90;;;;;;5030331;28;20216;-77
2021/10/16 05:59:56;;;;;;;5.90;5.00;;;9.00;99.90;;;;;;5030484;28;20162;-79
2021/10/16 06:02:22;;;;;;;8.93;5.47;;;9.10;99.90;;;;;;5029802;28;20169;-77
2021/10/16 06:04:50;;;;;;;19.13;6.20;;;9.10;99.90;;;;;;5014329;28;20174;-77
2021/10/16 06:07:17;;;;;;;8.50;5.25;;;9.10;99.90;;;;;;5046751;28;20173;-77
2021/10/16 06:09:44;;;;;;;13.35;5.35;;;9.10;99.90;;;;;;5031568;28;20174;-76
2021/10/16 06:12:10;;;;;;;17.10;5.90;;;9.10;99.90;;;;;;5013438;28;20181;-77
2021/10/16 06:14:36;;;;;;;19.25;5.75;;;9.00;99.90;;;;;;5034892;28;20217;-77
2021/10/16 06:17:18;;;;;;;9.90;5.65;;;8.90;99.90;;;;;;5023387;28;20185;-77
2021/10/16 06:19:45;;;;;;;14.73;4.73;;;8.80;99.90;;;;;;4991089;28;20159;-77
2021/10/16 06:22:11;;;;;;;13.32;5.18;;;8.80;99.90;;;;;;4990640;28;20559;-77
2021/10/16 06:24:36;;;;;;;11.35;4.00;;;8.70;99.90;;;;;;5008153;28;20259;-77
2021/10/16 06:27:03;;;;;;;10.80;5.40;;;8.70;99.90;;;;;;4994425;28;20199;-77
2021/10/16 06:29:28;;;;;;;11.60;6.75;;;8.60;99.90;;;;;;4996912;28;20661;-78
2021/10/16 06:31:56;;;;;;;10.93;5.85;;;8.70;99.90;;;;;;5011455;28;20229;-76
2021/10/16 06:34:22;;;;;;;12.30;6.63;;;8.70;99.90;;;;;;4962407;28;20277;-77
2021/10/16 06:36:48;;;;;;;12.57;5.80;;;8.70;99.90;;;;;;4994709;28;20198;-77
2021/10/16 06:39:14;;;;;;;7.15;5.60;;;8.80;99.90;;;;;;4994655;28;20171;-76
2021/10/16 06:41:48;;;;;;;12.40;5.35;;;8.80;99.90;;;;;;4963329;28;20177;-77
2021/10/16 06:44:32;;;;;;;9.38;6.78;;;8.80;99.90;;;;;;4995880;28;20229;-77
2021/10/16 06:47:24;;;;;;;10.25;5.97;;;8.90;99.90;;;;;;4982406;28;20183;-77
2021/10/16 06:49:50;;;;;;;8.60;6.03;;;8.90;99.90;;;;;;4978172;28;20179;-77
2021/10/16 06:52:16;;;;;;;9.33;6.67;;;9.00;99.90;;;;;;4977787;28;20262;-76
2021/10/16 06:54:42;;;;;;;11.73;5.83;;;9.00;99.90;;;;;;5010149;28;20195;-77
2021/10/16 06:57:07;;;;;;;23.73;7.50;;;9.00;99.90;;;;;;4994224;28;20179;-78
2021/10/16 06:59:36;;;;;;;7.45;6.60;;;9.00;99.90;;;;;;4994063;28;20578;-77
2021/10/16 07:02:05;;;;;;;13.82;6.43;;;9.00;99.90;;;;;;4994175;28;20175;-77
2021/10/16 07:04:43;;;;;;;10.73;7.10;;;9.10;99.90;;;;;;4993996;28;20175;-77
2021/10/16 07:07:09;;;;;;;14.73;6.30;;;9.10;99.90;;;;;;4995257;28;20181;-78
2021/10/16 07:09:40;;;;;;;26.08;7.95;;;9.10;99.90;;;;;;5009550;28;20189;-77
2021/10/16 07:12:08;;;;;;;18.30;6.00;;;9.20;99.90;;;;;;4993707;28;20262;-78
2021/10/16 07:14:34;;;;;;;10.93;6.30;;;9.00;99.90;;;;;;4977405;28;20232;-78
2021/10/16 07:17:04;;;;;;;7.80;6.22;;;8.90;99.90;;;;;;4993800;28;20258;-78
2021/10/16 07:19:30;;;;;;;8.40;6.83;;;8.90;99.90;;;;;;4994765;28;20258;-78
2021/10/16 07:21:55;;;;;;;26.00;8.53;;;8.80;99.90;;;;;;4994603;28;20179;-78
2021/10/16 07:24:21;;;;;;;11.70;6.73;;;8.90;99.90;;;;;;4995418;28;20656;-77
2021/10/16 07:26:47;;;;;;;16.60;8.23;;;8.90;99.90;;;;;;4995322;28;20242;-77
2021/10/16 07:29:12;;;;;;;27.57;8.17;;;8.90;99.90;;;;;;4994883;28;20709;-77
2021/10/16 07:31:38;;;;;;;14.50;7.73;;;8.80;99.90;;;;;;4993121;28;20537;-77
2021/10/16 07:34:04;;;;;;;20.03;8.53;;;8.70;99.90;;;;;;4994747;28;20618;-76
2021/10/16 07:36:38;;;;;;;16.07;8.13;;;8.70;99.90;;;;;;4994044;28;20625;-77
2021/10/16 07:39:07;;;;;;;13.27;9.02;;;8.60;99.90;;;;;;4993419;28;20186;-78
2021/10/16 07:41:33;;;;;;;21.60;8.40;;;8.60;99.90;;;;;;4976687;28;20171;-78
2021/10/16 07:43:59;;;;;;;14.23;7.88;;;8.70;99.90;;;;;;4994742;28;20175;-78
2021/10/16 07:46:25;;;;;;;10.80;8.30;;;8.70;99.90;;;;;;4993116;28;20194;-78
2021/10/16 07:48:51;;;;;;;19.60;8.50;;;8.80;99.90;;;;;;4993294;28;20179;-77
2021/10/16 07:51:17;;;;;;;12.47;9.67;;;8.90;99.90;;;;;;4994331;28;20653;-79
2021/10/16 07:53:43;;;;;;;20.50;9.70;;;8.90;99.90;;;;;;4993511;28;20211;-78
2021/10/16 07:56:09;;;;;;;17.98;9.15;;;9.00;99.90;;;;;;4994174;28;20210;-77
2021/10/16 07:58:39;;;;;;;24.95;9.60;;;9.10;99.90;;;;;;4993380;28;20564;-77
2021/10/16 08:01:05;;;;;;;15.93;9.43;;;9.30;99.90;;;;;;4995071;28;20167;-77
2021/10/16 08:03:31;;;;;;;13.13;9.25;;;9.30;99.90;;;;;;4992862;28;20171;-77
2021/10/16 08:05:57;;;;;;;13.30;9.80;;;9.40;99.90;;;;;;4994281;28;20257;-77
2021/10/16 08:08:22;;;;;;;11.67;9.20;;;9.50;99.90;;;;;;4992686;28;20168;-77
2021/10/16 08:10:48;;;;;;;15.77;10.38;;;9.60;99.90;;;;;;4992919;28;20182;-77
2021/10/16 08:13:14;;;;;;;14.30;9.73;;;9.70;99.90;;;;;;4992843;28;20648;-76
2021/10/16 08:15:40;;;;;;;16.53;9.90;;;9.80;99.90;;;;;;4992623;28;20195;-77
2021/10/16 08:18:06;;;;;;;16.00;10.13;;;9.90;99.90;;;;;;4993736;28;20566;-77
2021/10/16 08:20:32;;;;;;;12.13;9.57;;;9.90;99.90;;;;;;4993695;28;20214;-77
2021/10/16 08:22:58;;;;;;;12.50;9.30;;;10.00;99.90;;;;;;4993270;28;20179;-77
2021/10/16 08:25:24;;;;;;;12.05;10.75;;;10.00;99.90;;;;;;4993730;28;20608;-77
2021/10/16 08:27:51;;;;;;;13.93;10.38;;;10.00;99.90;;;;;;4992485;28;20171;-78
2021/10/16 08:30:18;;;;;;;14.93;11.63;;;10.10;99.90;;;;;;4993845;28;20400;-77
2021/10/16 08:32:43;;;;;;;14.77;12.77;;;10.10;99.90;;;;;;4992304;28;20171;-77
2021/10/16 08:35:10;;;;;;;15.20;11.37;;;10.20;99.90;;;;;;4993364;28;20225;-77
2021/10/16 08:37:37;;;;;;;16.33;12.50;;;10.30;99.90;;;;;;4994303;28;20718;-77
2021/10/16 08:40:04;;;;;;;15.50;11.82;;;10.40;99.90;;;;;;4993409;28;20167;-78
2021/10/16 08:42:31;;;;;;;23.35;12.95;;;10.40;99.90;;;;;;4975759;28;20806;-77
2021/10/16 08:44:59;;;;;;;14.18;11.13;;;10.50;99.90;;;;;;4993029;28;20678;-77
2021/10/16 08:47:28;;;;;;;21.88;12.77;;;10.60;99.90;;;;;;4993611;28;20175;-77
2021/10/16 08:49:56;;;;;;;18.70;13.23;;;10.70;99.90;;;;;;4991518;28;20178;-77
2021/10/16 08:52:22;;;;;;;16.08;11.15;;;10.80;99.90;;;;;;4993149;28;20198;-77
2021/10/16 08:54:48;;;;;;;14.52;12.63;;;11.00;99.90;;;;;;4991601;28;20245;-77
2021/10/16 08:57:14;;;;;;;19.50;12.97;;;11.00;99.90;;;;;;4979158;28;20205;-77
2021/10/16 08:59:40;;;;;;;17.70;12.53;;;11.10;99.90;;;;;;5022512;28;20984;-77
2021/10/16 09:02:08;;;;;;;24.60;16.33;;;11.20;99.90;;;;;;5024728;28;20183;-77
2021/10/16 09:04:35;;;;;;;18.77;14.57;;;11.20;99.90;;;;;;5015922;28;20596;-77
2021/10/16 09:07:21;;;;;;;18.77;13.95;;;11.20;99.90;;;;;;5023793;28;20189;-77
2021/10/16 09:09:48;;;;;;;16.15;12.48;;;11.30;99.90;;;;;;5023783;28;20182;-77
2021/10/16 09:12:15;;;;;;;17.73;14.43;;;11.40;99.90;;;;;;5028282;28;20201;-79
2021/10/16 09:14:46;;;;;;;19.60;14.18;;;11.50;99.90;;;;;;5033170;28;20201;-78
2021/10/16 09:17:14;;;;;;;18.73;14.13;;;11.50;99.90;;;;;;5032475;28;20177;-79
2021/10/16 09:19:39;;;;;;;19.05;15.63;;;11.50;99.90;;;;;;5033666;28;20172;-79
2021/10/16 09:22:19;;;;;;;15.50;12.43;;;11.50;99.90;;;;;;5031680;28;20174;-78
2021/10/16 09:24:47;;;;;;;16.27;11.90;;;11.60;99.90;;;;;;5029986;28;20182;-78
2021/10/16 09:27:24;;;;;;;17.25;13.35;;;11.70;99.90;;;;;;5030953;28;20664;-78
2021/10/16 09:29:52;;;;;;;21.17;15.82;;;11.80;99.90;;;;;;5031684;28;20189;-79
2021/10/16 09:32:22;;;;;;;16.90;13.88;;;11.90;99.90;;;;;;5029911;28;20189;-78
2021/10/16 09:34:49;;;;;;;21.00;14.85;;;12.00;99.90;;;;;;5031516;28;20559;-78
2021/10/16 09:37:18;;;;;;;17.80;15.40;;;12.00;99.90;;;;;;5031242;28;20190;-78
2021/10/16 09:39:49;;;;;;;16.63;13.20;;;12.00;99.90;;;;;;5030455;28;20180;-78
2021/10/16 09:42:43;;;;;;;17.33;14.05;;;12.10;99.90;;;;;;5031064;28;20205;-78
2021/10/16 09:45:14;;;;;;;15.60;13.30;;;12.10;99.90;;;;;;5022889;28;20209;-78
2021/10/16 09:47:54;;;;;;;20.80;12.98;;;12.20;99.90;;;;;;5031375;28;20521;-78
2021/10/16 09:50:20;;;;;;;14.48;11.80;;;12.30;99.90;;;;;;5031778;28;20696;-78
2021/10/16 09:52:48;;;;;;;14.27;11.63;;;12.50;99.90;;;;;;5030745;28;20204;-78
2021/10/16 09:55:14;;;;;;;15.82;13.40;;;12.60;99.90;;;;;;5031462;28;20198;-78
2021/10/16 09:57:41;;;;;;;16.05;14.00;;;12.70;99.90;;;;;;5030395;28;20649;-78
2021/10/16 10:00:09;;;;;;;15.15;13.13;;;12.90;99.90;;;;;;5031660;28;20169;-78
2021/10/16 10:02:38;;;;;;;14.30;12.60;;;13.10;99.90;;;;;;5031296;28;20215;-78
2021/10/16 10:05:07;;;;;;;18.60;14.17;;;13.30;99.90;;;;;;5031518;28;20675;-78
2021/10/16 10:07:34;;;;;;;14.13;12.00;;;13.50;99.90;;;;;;5031490;28;20571;-78
2021/10/16 10:10:02;;;;;;;15.40;13.00;;;13.80;99.90;;;;;;5031500;28;20166;-78
2021/10/16 10:12:28;;;;;;;15.90;13.73;;;14.00;99.90;;;;;;5030203;28;20667;-78
2021/10/16 10:14:55;;;;;;;15.37;13.30;;;14.20;99.90;;;;;;5031192;28;20703;-78
2021/10/16 10:17:29;;;;;;;14.50;12.27;;;14.40;99.90;;;;;;5031590;28;20510;-78
2021/10/16 10:20:12;;;;;;;12.77;11.10;;;14.70;99.90;;;;;;5031373;28;20564;-78
2021/10/16 10:22:40;;;;;;;17.40;13.80;;;15.00;99.90;;;;;;5030342;28;21160;-79
2021/10/16 10:25:25;;;;;;;15.73;13.23;;;15.30;99.90;;;;;;5031267;28;20639;-78
2021/10/16 10:27:54;;;;;;;12.53;11.00;;;15.70;99.90;;;;;;5031382;28;20986;-78
2021/10/16 10:30:35;;;;;;;12.60;11.37;;;16.30;99.90;;;;;;5030522;28;20580;-79
2021/10/16 10:33:16;;;;;;;14.27;12.57;;;16.90;99.90;;;;;;5029857;28;20576;-78
2021/10/16 10:36:00;;;;;;;10.53;9.43;;;17.60;99.90;;;;;;5030815;28;20632;-78
2021/10/16 10:38:29;;;;;;;12.43;10.93;;;18.30;99.90;;;;;;5031827;28;20552;-77
2021/10/16 10:40:55;;;;;;;13.60;10.53;;;19.10;99.90;;;;;;5031165;28;20576;-77
2021/10/16 10:43:48;;;;;;;15.20;11.83;;;19.70;99.90;;;;;;5031056;28;21111;-77
2021/10/16 10:46:14;;;;;;;13.73;10.93;;;20.20;99.90;;;;;;5028107;28;20220;-77
2021/10/16 10:48:44;;;;;;;12.10;11.00;;;20.80;99.90;;;;;;5031204;28;20556;-77
2021/10/16 10:51:10;;;;;;;13.07;11.40;;;21.20;99.90;;;;;;5031117;28;20573;-78
2021/10/16 10:53:38;;;;;;;12.73;11.40;;;21.60;99.90;;;;;;5031200;28;20571;-77
2021/10/16 10:56:07;;;;;;;14.43;12.30;;;21.80;99.90;;;;;;5031180;28;20201;-77
2021/10/16 10:58:53;;;;;;;12.13;10.80;;;21.80;99.90;;;;;;5031783;28;20710;-77
2021/10/16 11:01:49;;;;;;;11.33;10.33;;;21.90;99.90;;;;;;5029700;28;20572;-77
2021/10/16 11:04:38;;;;;;;15.00;10.67;;;22.10;99.90;;;;;;5030035;28;20974;-77
2021/10/16 11:07:10;;;;;;;16.63;12.30;;;22.40;99.90;;;;;;5031466;28;20664;-77
2021/10/16 11:09:36;;;;;;;13.10;11.80;;;22.60;99.90;;;;;;5030308;28;20615;-77
2021/10/16 11:12:02;;;;;;;10.70;9.67;;;22.70;99.90;;;;;;5031864;28;20655;-77
2021/10/16 11:14:32;;;;;;;10.37;9.33;;;22.70;99.90;;;;;;5034490;28;20716;-77
2021/10/16 11:17:06;;;;;;;14.13;11.00;;;22.70;99.90;;;;;;5034202;28;20607;-77
2021/10/16 11:19:50;;;;;;;9.50;7.73;;;22.80;99.90;;;;;;5034656;28;20564;-77
2021/10/16 11:22:15;;;;;;;8.80;7.90;;;22.80;99.90;;;;;;5033870;28;21166;-77
2021/10/16 11:24:41;;;;;;;9.03;8.13;;;22.80;99.90;;;;;;5034111;28;20568;-77
2021/10/16 11:27:07;;;;;;;9.60;8.40;;;22.70;99.90;;;;;;5034284;28;20173;-77
2021/10/16 11:29:36;;;;;;;8.77;7.93;;;22.60;99.90;;;;;;5034575;28;20565;-77
2021/10/16 11:32:22;;;;;;;10.50;8.67;;;22.50;99.90;;;;;;5033737;28;20252;-77
2021/10/16 11:34:58;;;;;;;10.43;7.60;;;22.60;99.90;;;;;;5034059;28;20619;-77
2021/10/16 11:37:46;;;;;;;9.97;7.73;;;22.50;99.90;;;;;;5033785;28;20603;-77
2021/10/16 11:40:17;;;;;;;8.20;7.40;;;22.20;99.90;;;;;;5032840;28;20572;-76
2021/10/16 11:42:49;;;;;;;10.17;8.63;;;22.10;99.90;;;;;;5033828;28;20636;-77
2021/10/16 11:45:18;;;;;;;10.80;7.40;;;21.90;99.90;;;;;;5034549;28;20596;-76
2021/10/16 11:47:52;;;;;;;8.30;7.03;;;21.80;99.90;;;;;;5033670;28;20568;-76
2021/10/16 11:50:21;;;;;;;12.10;7.20;;;21.90;99.90;;;;;;5033950;28;20579;-77
2021/10/16 11:52:49;;;;;;;8.30;5.60;;;22.00;99.90;;;;;;5033940;28;20564;-77
2021/10/16 11:55:16;;;;;;;7.07;4.50;;;22.20;99.90;;;;;;5034857;28;20636;-77
2021/10/16 11:57:43;;;;;;;7.60;5.30;;;22.20;99.90;;;;;;5036450;28;20568;-77
2021/10/16 12:00:17;;;;;;;17.63;5.80;;;22.10;99.90;;;;;;5032579;28;20561;-77
2021/10/16 12:02:42;;;;;;;8.17;5.20;;;21.80;99.90;;;;;;5033514;28;20672;-77
2021/10/16 12:05:09;;;;;;;9.80;4.97;;;21.60;99.90;;;;;;5033424;28;21057;-77
2021/10/16 12:07:35;;;;;;;9.47;5.97;;;21.40;99.90;;;;;;5033979;28;20538;-77
2021/10/16 12:10:28;;;;;;;10.73;6.10;;;21.10;99.90;;;;;;5032233;28;20576;-77
2021/10/16 12:13:08;;;;;;;8.47;5.40;;;20.70;99.90;;;;;;5033349;28;20615;-77
2021/10/16 12:15:47;;;;;;;7.00;4.50;;;20.30;99.90;;;;;;5021676;28;21003;-77
2021/10/16 12:18:22;;;;;;;8.07;4.37;;;19.90;99.90;;;;;;5033606;28;20916;-77
2021/10/16 12:20:54;;;;;;;5.13;3.57;;;19.70;99.90;;;;;;5033527;28;20571;-77
2021/10/16 12:23:21;;;;;;;16.70;3.97;;;19.30;99.90;;;;;;5030848;28;20646;-76
2021/10/16 12:25:52;;;;;;;5.57;2.90;;;18.90;99.30;;;;;;5033008;28;21008;-77
2021/10/16 12:28:20;;;;;;;7.87;3.50;;;18.50;99.10;;;;;;5033203;28;20622;-77
2021/10/16 12:31:08;;;;;;;7.43;3.40;;;18.00;98.20;;;;;;5031686;28;20653;-77
2021/10/16 12:34:16;;;;;;;7.10;3.03;;;17.50;98.50;;;;;;5032793;28;20952;-77
2021/10/16 12:36:53;;;;;;;5.80;2.70;;;17.20;98.90;;;;;;5026842;28;21195;-77
2021/10/16 12:39:38;;;;;;;3.80;2.30;;;17.10;99.80;;;;;;5033039;28;20564;-77
2021/10/16 12:42:32;;;;;;;7.50;3.50;;;16.90;98.20;;;;;;5033216;28;20583;-77
2021/10/16 12:45:09;;;;;;;6.27;2.10;;;16.80;99.30;;;;;;5030468;28;20979;-77
2021/10/16 12:47:35;;;;;;;9.77;2.80;;;16.60;99.40;;;;;;5033196;28;20595;-77
2021/10/16 12:50:03;;;;;;;5.77;1.77;;;16.50;99.60;;;;;;5032523;28;20599;-77
2021/10/16 12:52:31;;;;;;;5.60;2.00;;;16.40;99.50;;;;;;5031287;28;20174;-76
2021/10/16 12:55:00;;;;;;;13.27;2.47;;;16.30;99.90;;;;;;5032645;28;20674;-77